sensor_id;sensor_type;location;lat;lon;timestamp;P1;durP1;ratioP1;P2;durP2;ratioP2
65405;SDS011;52016;51.228;-2.322;2022-12-22T00:01:27;15.80;;;10.57;;
65405;SDS011;52016;51.228;-2.322;2022-12-22T00:05:30;22.73;;;14.77;;
65405;SDS011;52016;51.228;-2.322;2022-12-22T00:09:31;20.45;;;12.73;;
65405;SDS011;52016;51.228;-2.322;2022-12-22T00:13:32;30.20;;;18.10;;
65405;SDS011;52016;51.228;-2.322;2022-12-22T00:17:33;36.33;;;22.45;;
65405;SDS011;52016;51.228;-2.322;2022-12-22T00:21:34;32.63;;;19.52;;
65405;SDS011;52016;51.228;-2.322;2022-12-22T00:25:35;30.45;;;17.88;;
65405;SDS011;52016;51.228;-2.322;2022-12-22T00:29:36;28.67;;;18.05;;
65405;SDS011;52016;51.228;-2.322;2022-12-22T00:33:39;18.15;;;12.43;;
65405;SDS011;52016;51.228;-2.322;2022-12-22T00:37:40;29.20;;;8.63;;
65405;SDS011;52016;51.228;-2.322;2022-12-22T00:41:41;23.67;;;9.90;;
65405;SDS011;52016;51.228;-2.322;2022-12-22T00:45:41;49.30;;;6.78;;
65405;SDS011;52016;51.228;-2.322;2022-12-22T00:49:44;151.85;;;6.50;;
65405;SDS011;52016;51.228;-2.322;2022-12-22T00:53:46;226.15;;;6.72;;
65405;SDS011;52016;51.228;-2.322;2022-12-22T00:57:47;312.63;;;7.65;;
65405;SDS011;52016;51.228;-2.322;2022-12-22T01:01:48;225.82;;;7.22;;
65405;SDS011;52016;51.228;-2.322;2022-12-22T01:05:49;219.55;;;6.65;;
65405;SDS011;52016;51.228;-2.322;2022-12-22T01:09:50;152.13;;;6.25;;
65405;SDS011;52016;51.228;-2.322;2022-12-22T01:13:51;204.02;;;6.55;;
65405;SDS011;52016;51.228;-2.322;2022-12-22T01:17:52;197.77;;;6.50;;
65405;SDS011;52016;51.228;-2.322;2022-12-22T01:21:53;86.95;;;5.53;;
65405;SDS011;52016;51.228;-2.322;2022-12-22T01:25:55;87.97;;;5.30;;
65405;SDS011;52016;51.228;-2.322;2022-12-22T01:29:55;112.38;;;5.43;;
65405;SDS011;52016;51.228;-2.322;2022-12-22T01:33:56;97.65;;;6.40;;
65405;SDS011;52016;51.228;-2.322;2022-12-22T01:37:57;83.45;;;5.93;;
65405;SDS011;52016;51.228;-2.322;2022-12-22T01:41:57;83.28;;;5.90;;
65405;SDS011;52016;51.228;-2.322;2022-12-22T01:46:15;48.42;;;5.40;;
65405;SDS011;52016;51.228;-2.322;2022-12-22T01:50:32;54.03;;;5.38;;
65405;SDS011;52016;51.228;-2.322;2022-12-22T01:54:34;51.90;;;5.20;;
65405;SDS011;52016;51.228;-2.322;2022-12-22T01:58:37;40.42;;;5.22;;
65405;SDS011;52016;51.228;-2.322;2022-12-22T02:02:42;32.28;;;4.80;;
65405;SDS011;52016;51.228;-2.322;2022-12-22T02:06:43;44.95;;;5.30;;
65405;SDS011;52016;51.228;-2.322;2022-12-22T02:15:03;24.40;;;4.45;;
65405;SDS011;52016;51.228;-2.322;2022-12-22T02:27:28;15.48;;;4.10;;
65405;SDS011;52016;51.228;-2.322;2022-12-22T02:31:34;34.55;;;4.40;;
65405;SDS011;52016;51.228;-2.322;2022-12-22T02:40:08;19.42;;;4.28;;
65405;SDS011;52016;51.228;-2.322;2022-12-22T02:49:20;162.73;;;5.93;;
65405;SDS011;52016;51.228;-2.322;2022-12-22T02:53:21;188.27;;;6.70;;
65405;SDS011;52016;51.228;-2.322;2022-12-22T02:57:23;201.82;;;6.82;;
65405;SDS011;52016;51.228;-2.322;2022-12-22T03:01:24;160.95;;;6.70;;
65405;SDS011;52016;51.228;-2.322;2022-12-22T03:05:24;197.82;;;6.28;;
65405;SDS011;52016;51.228;-2.322;2022-12-22T03:09:24;246.48;;;6.65;;
65405;SDS011;52016;51.228;-2.322;2022-12-22T03:13:25;263.00;;;7.45;;
65405;SDS011;52016;51.228;-2.322;2022-12-22T03:17:25;307.85;;;8.60;;
65405;SDS011;52016;51.228;-2.322;2022-12-22T03:21:26;231.57;;;6.90;;
65405;SDS011;52016;51.228;-2.322;2022-12-22T03:25:27;178.45;;;6.18;;
65405;SDS011;52016;51.228;-2.322;2022-12-22T03:29:28;302.75;;;6.40;;
65405;SDS011;52016;51.228;-2.322;2022-12-22T03:33:10;238.82;;;5.72;;
65405;SDS011;52016;51.228;-2.322;2022-12-22T03:36:52;291.13;;;6.47;;
65405;SDS011;52016;51.228;-2.322;2022-12-22T03:40:34;205.45;;;5.63;;
65405;SDS011;52016;51.228;-2.322;2022-12-22T03:44:16;79.07;;;4.40;;
65405;SDS011;52016;51.228;-2.322;2022-12-22T03:48:16;124.57;;;5.00;;
65405;SDS011;52016;51.228;-2.322;2022-12-22T03:51:58;59.38;;;3.30;;
65405;SDS011;52016;51.228;-2.322;2022-12-22T03:55:40;86.43;;;5.32;;
65405;SDS011;52016;51.228;-2.322;2022-12-22T03:59:22;113.70;;;4.07;;
65405;SDS011;52016;51.228;-2.322;2022-12-22T04:03:04;108.38;;;4.00;;
65405;SDS011;52016;51.228;-2.322;2022-12-22T04:06:46;155.40;;;4.55;;
65405;SDS011;52016;51.228;-2.322;2022-12-22T04:10:28;103.32;;;3.35;;
65405;SDS011;52016;51.228;-2.322;2022-12-22T04:14:29;45.15;;;2.97;;
65405;SDS011;52016;51.228;-2.322;2022-12-22T04:18:15;3.55;;;2.15;;
65405;SDS011;52016;51.228;-2.322;2022-12-22T04:21:57;6.03;;;1.90;;
65405;SDS011;52016;51.228;-2.322;2022-12-22T04:25:39;2.17;;;1.70;;
65405;SDS011;52016;51.228;-2.322;2022-12-22T04:29:21;2.88;;;1.80;;
65405;SDS011;52016;51.228;-2.322;2022-12-22T04:33:03;2.13;;;1.60;;
65405;SDS011;52016;51.228;-2.322;2022-12-22T04:36:45;3.40;;;1.90;;
65405;SDS011;52016;51.228;-2.322;2022-12-22T04:40:27;4.07;;;1.80;;
65405;SDS011;52016;51.228;-2.322;2022-12-22T04:44:09;3.13;;;1.80;;
65405;SDS011;52016;51.228;-2.322;2022-12-22T04:47:51;3.03;;;1.65;;
65405;SDS011;52016;51.228;-2.322;2022-12-22T04:51:32;3.10;;;1.70;;
65405;SDS011;52016;51.228;-2.322;2022-12-22T04:55:14;3.75;;;1.85;;
65405;SDS011;52016;51.228;-2.322;2022-12-22T04:58:56;3.13;;;1.70;;
65405;SDS011;52016;51.228;-2.322;2022-12-22T05:02:38;3.53;;;1.80;;
65405;SDS011;52016;51.228;-2.322;2022-12-22T05:06:21;2.58;;;1.92;;
65405;SDS011;52016;51.228;-2.322;2022-12-22T05:10:03;3.40;;;2.10;;
65405;SDS011;52016;51.228;-2.322;2022-12-22T05:13:45;3.53;;;2.13;;
65405;SDS011;52016;51.228;-2.322;2022-12-22T05:17:28;6.68;;;2.10;;
65405;SDS011;52016;51.228;-2.322;2022-12-22T05:21:11;2.72;;;2.15;;
65405;SDS011;52016;51.228;-2.322;2022-12-22T05:24:54;4.82;;;2.17;;
65405;SDS011;52016;51.228;-2.322;2022-12-22T05:28:36;3.22;;;2.35;;
65405;SDS011;52016;51.228;-2.322;2022-12-22T05:32:18;3.80;;;2.33;;
65405;SDS011;52016;51.228;-2.322;2022-12-22T05:36:00;5.35;;;2.40;;
65405;SDS011;52016;51.228;-2.322;2022-12-22T05:39:42;3.58;;;2.40;;
65405;SDS011;52016;51.228;-2.322;2022-12-22T05:43:24;5.18;;;2.45;;
65405;SDS011;52016;51.228;-2.322;2022-12-22T05:47:06;4.00;;;2.90;;
65405;SDS011;52016;51.228;-2.322;2022-12-22T05:50:48;5.57;;;2.58;;
65405;SDS011;52016;51.228;-2.322;2022-12-22T05:54:30;5.55;;;3.03;;
65405;SDS011;52016;51.228;-2.322;2022-12-22T05:58:12;4.68;;;3.20;;
65405;SDS011;52016;51.228;-2.322;2022-12-22T06:01:54;4.57;;;2.70;;
65405;SDS011;52016;51.228;-2.322;2022-12-22T06:05:36;4.63;;;2.90;;
65405;SDS011;52016;51.228;-2.322;2022-12-22T06:09:18;5.20;;;2.95;;
65405;SDS011;52016;51.228;-2.322;2022-12-22T06:13:00;3.38;;;2.70;;
65405;SDS011;52016;51.228;-2.322;2022-12-22T06:16:42;3.05;;;2.58;;
65405;SDS011;52016;51.228;-2.322;2022-12-22T06:20:24;3.53;;;2.75;;
65405;SDS011;52016;51.228;-2.322;2022-12-22T06:24:06;2.55;;;2.30;;
65405;SDS011;52016;51.228;-2.322;2022-12-22T06:27:48;2.35;;;2.08;;
65405;SDS011;52016;51.228;-2.322;2022-12-22T06:31:30;2.58;;;1.98;;
65405;SDS011;52016;51.228;-2.322;2022-12-22T06:35:12;1.90;;;1.67;;
65405;SDS011;52016;51.228;-2.322;2022-12-22T06:38:54;1.55;;;1.45;;
65405;SDS011;52016;51.228;-2.322;2022-12-22T06:42:36;1.83;;;1.48;;
65405;SDS011;52016;51.228;-2.322;2022-12-22T06:46:46;1.70;;;1.45;;
65405;SDS011;52016;51.228;-2.322;2022-12-22T06:50:28;1.20;;;1.20;;
65405;SDS011;52016;51.228;-2.322;2022-12-22T06:54:10;0.90;;;0.90;;
65405;SDS011;52016;51.228;-2.322;2022-12-22T06:57:52;0.93;;;0.93;;
65405;SDS011;52016;51.228;-2.322;2022-12-22T07:01:34;0.90;;;0.90;;
65405;SDS011;52016;51.228;-2.322;2022-12-22T07:05:16;1.20;;;1.10;;
65405;SDS011;52016;51.228;-2.322;2022-12-22T07:08:58;1.80;;;1.20;;
65405;SDS011;52016;51.228;-2.322;2022-12-22T07:12:40;2.53;;;1.35;;
65405;SDS011;52016;51.228;-2.322;2022-12-22T07:16:22;2.60;;;1.35;;
65405;SDS011;52016;51.228;-2.322;2022-12-22T07:20:05;4.05;;;1.52;;
65405;SDS011;52016;51.228;-2.322;2022-12-22T07:23:47;2.30;;;1.48;;
65405;SDS011;52016;51.228;-2.322;2022-12-22T07:27:29;2.47;;;1.50;;
65405;SDS011;52016;51.228;-2.322;2022-12-22T07:31:11;4.32;;;1.90;;
65405;SDS011;52016;51.228;-2.322;2022-12-22T07:34:55;3.75;;;1.80;;
65405;SDS011;52016;51.228;-2.322;2022-12-22T07:38:46;9.63;;;2.15;;
65405;SDS011;52016;51.228;-2.322;2022-12-22T07:42:30;4.93;;;2.05;;
65405;SDS011;52016;51.228;-2.322;2022-12-22T07:46:29;6.47;;;1.83;;
65405;SDS011;52016;51.228;-2.322;2022-12-22T07:50:14;7.88;;;2.10;;
65405;SDS011;52016;51.228;-2.322;2022-12-22T07:54:13;5.75;;;1.73;;
65405;SDS011;52016;51.228;-2.322;2022-12-22T07:57:56;7.75;;;1.70;;
65405;SDS011;52016;51.228;-2.322;2022-12-22T08:01:39;7.78;;;1.77;;
65405;SDS011;52016;51.228;-2.322;2022-12-22T08:05:22;8.75;;;1.77;;
65405;SDS011;52016;51.228;-2.322;2022-12-22T08:09:05;8.85;;;2.10;;
65405;SDS011;52016;51.228;-2.322;2022-12-22T08:12:49;7.20;;;2.13;;
65405;SDS011;52016;51.228;-2.322;2022-12-22T08:16:31;12.43;;;2.40;;
65405;SDS011;52016;51.228;-2.322;2022-12-22T08:20:13;9.38;;;1.92;;
65405;SDS011;52016;51.228;-2.322;2022-12-22T08:23:55;6.78;;;2.00;;
65405;SDS011;52016;51.228;-2.322;2022-12-22T08:27:40;9.43;;;1.75;;
65405;SDS011;52016;51.228;-2.322;2022-12-22T08:31:24;13.60;;;2.10;;
65405;SDS011;52016;51.228;-2.322;2022-12-22T08:35:09;13.40;;;2.38;;
65405;SDS011;52016;51.228;-2.322;2022-12-22T08:38:51;14.95;;;2.80;;
65405;SDS011;52016;51.228;-2.322;2022-12-22T08:42:33;15.10;;;3.63;;
65405;SDS011;52016;51.228;-2.322;2022-12-22T08:46:15;17.10;;;2.90;;
65405;SDS011;52016;51.228;-2.322;2022-12-22T08:49:57;15.73;;;3.20;;
65405;SDS011;52016;51.228;-2.322;2022-12-22T08:53:39;19.63;;;3.50;;
65405;SDS011;52016;51.228;-2.322;2022-12-22T08:57:41;22.02;;;3.92;;
65405;SDS011;52016;51.228;-2.322;2022-12-22T09:01:23;17.58;;;3.38;;
65405;SDS011;52016;51.228;-2.322;2022-12-22T09:05:06;17.30;;;3.80;;
65405;SDS011;52016;51.228;-2.322;2022-12-22T09:08:51;24.95;;;4.53;;
65405;SDS011;52016;51.228;-2.322;2022-12-22T09:12:37;19.48;;;3.40;;
65405;SDS011;52016;51.228;-2.322;2022-12-22T09:16:20;22.25;;;4.28;;
65405;SDS011;52016;51.228;-2.322;2022-12-22T09:20:04;20.58;;;3.85;;
65405;SDS011;52016;51.228;-2.322;2022-12-22T09:23:47;27.27;;;4.40;;
65405;SDS011;52016;51.228;-2.322;2022-12-22T09:27:29;27.05;;;5.28;;
65405;SDS011;52016;51.228;-2.322;2022-12-22T09:31:11;37.15;;;4.55;;
65405;SDS011;52016;51.228;-2.322;2022-12-22T09:34:54;31.95;;;5.47;;
65405;SDS011;52016;51.228;-2.322;2022-12-22T09:38:36;39.90;;;5.50;;
65405;SDS011;52016;51.228;-2.322;2022-12-22T09:42:19;27.58;;;5.30;;
65405;SDS011;52016;51.228;-2.322;2022-12-22T09:46:04;28.73;;;5.75;;
65405;SDS011;52016;51.228;-2.322;2022-12-22T09:49:55;30.95;;;5.32;;
65405;SDS011;52016;51.228;-2.322;2022-12-22T09:53:38;29.88;;;4.93;;
65405;SDS011;52016;51.228;-2.322;2022-12-22T09:57:20;36.53;;;6.65;;
65405;SDS011;52016;51.228;-2.322;2022-12-22T10:09:16;32.42;;;5.05;;
65405;SDS011;52016;51.228;-2.322;2022-12-22T10:13:21;22.52;;;4.35;;
65405;SDS011;52016;51.228;-2.322;2022-12-22T10:21:11;24.55;;;4.28;;
65405;SDS011;52016;51.228;-2.322;2022-12-22T10:24:55;17.08;;;4.07;;
65405;SDS011;52016;51.228;-2.322;2022-12-22T10:28:42;17.95;;;3.55;;
65405;SDS011;52016;51.228;-2.322;2022-12-22T10:32:27;23.92;;;3.53;;
65405;SDS011;52016;51.228;-2.322;2022-12-22T10:36:09;18.30;;;3.80;;
65405;SDS011;52016;51.228;-2.322;2022-12-22T10:39:53;13.13;;;2.72;;
65405;SDS011;52016;51.228;-2.322;2022-12-22T10:43:36;20.35;;;3.25;;
65405;SDS011;52016;51.228;-2.322;2022-12-22T10:47:26;14.30;;;2.75;;
65405;SDS011;52016;51.228;-2.322;2022-12-22T10:51:09;15.15;;;3.03;;
65405;SDS011;52016;51.228;-2.322;2022-12-22T10:55:12;12.50;;;2.88;;
65405;SDS011;52016;51.228;-2.322;2022-12-22T11:02:44;12.75;;;3.10;;
65405;SDS011;52016;51.228;-2.322;2022-12-22T11:06:33;11.07;;;2.75;;
65405;SDS011;52016;51.228;-2.322;2022-12-22T11:10:17;12.20;;;2.70;;
65405;SDS011;52016;51.228;-2.322;2022-12-22T11:18:25;12.02;;;3.00;;
65405;SDS011;52016;51.228;-2.322;2022-12-22T11:30:19;15.60;;;3.25;;
65405;SDS011;52016;51.228;-2.322;2022-12-22T11:38:16;15.23;;;2.65;;
65405;SDS011;52016;51.228;-2.322;2022-12-22T11:42:31;13.25;;;2.97;;
65405;SDS011;52016;51.228;-2.322;2022-12-22T11:46:32;13.75;;;2.90;;
65405;SDS011;52016;51.228;-2.322;2022-12-22T11:50:45;13.82;;;3.20;;
65405;SDS011;52016;51.228;-2.322;2022-12-22T11:54:59;17.92;;;3.28;;
65405;SDS011;52016;51.228;-2.322;2022-12-22T12:07:40;14.50;;;3.28;;
65405;SDS011;52016;51.228;-2.322;2022-12-22T12:11:31;18.58;;;3.20;;
65405;SDS011;52016;51.228;-2.322;2022-12-22T12:15:30;12.48;;;2.78;;
65405;SDS011;52016;51.228;-2.322;2022-12-22T12:31:52;7.93;;;2.60;;
65405;SDS011;52016;51.228;-2.322;2022-12-22T12:43:33;10.73;;;2.65;;
65405;SDS011;52016;51.228;-2.322;2022-12-22T12:51:44;11.73;;;2.38;;
65405;SDS011;52016;51.228;-2.322;2022-12-22T12:55:30;7.97;;;2.22;;
65405;SDS011;52016;51.228;-2.322;2022-12-22T12:59:35;10.20;;;2.40;;
65405;SDS011;52016;51.228;-2.322;2022-12-22T13:11:54;9.57;;;2.63;;
65405;SDS011;52016;51.228;-2.322;2022-12-22T13:19:42;14.38;;;2.85;;
65405;SDS011;52016;51.228;-2.322;2022-12-22T13:23:27;12.10;;;2.97;;
65405;SDS011;52016;51.228;-2.322;2022-12-22T13:31:19;14.23;;;3.03;;
65405;SDS011;52016;51.228;-2.322;2022-12-22T13:35:13;13.00;;;3.10;;
65405;SDS011;52016;51.228;-2.322;2022-12-22T13:39:19;15.98;;;3.70;;
65405;SDS011;52016;51.228;-2.322;2022-12-22T13:43:02;13.98;;;3.20;;
65405;SDS011;52016;51.228;-2.322;2022-12-22T13:46:50;18.70;;;3.53;;
65405;SDS011;52016;51.228;-2.322;2022-12-22T13:50:46;12.00;;;2.85;;
65405;SDS011;52016;51.228;-2.322;2022-12-22T13:58:38;15.50;;;5.13;;
65405;SDS011;52016;51.228;-2.322;2022-12-22T14:02:19;11.50;;;3.55;;
65405;SDS011;52016;51.228;-2.322;2022-12-22T14:10:12;13.38;;;4.30;;
65405;SDS011;52016;51.228;-2.322;2022-12-22T14:13:54;14.50;;;4.07;;
65405;SDS011;52016;51.228;-2.322;2022-12-22T14:17:36;16.10;;;4.30;;
65405;SDS011;52016;51.228;-2.322;2022-12-22T14:21:30;13.30;;;3.53;;
65405;SDS011;52016;51.228;-2.322;2022-12-22T14:25:13;10.02;;;3.22;;
65405;SDS011;52016;51.228;-2.322;2022-12-22T14:28:56;13.75;;;3.10;;
65405;SDS011;52016;51.228;-2.322;2022-12-22T14:32:40;13.57;;;3.20;;
65405;SDS011;52016;51.228;-2.322;2022-12-22T14:36:36;13.02;;;3.20;;
65405;SDS011;52016;51.228;-2.322;2022-12-22T14:44:26;17.30;;;3.78;;
65405;SDS011;52016;51.228;-2.322;2022-12-22T14:48:15;11.90;;;3.10;;
65405;SDS011;52016;51.228;-2.322;2022-12-22T14:56:19;16.00;;;3.47;;
65405;SDS011;52016;51.228;-2.322;2022-12-22T15:00:04;10.63;;;3.13;;
65405;SDS011;52016;51.228;-2.322;2022-12-22T15:07:48;17.33;;;3.75;;
65405;SDS011;52016;51.228;-2.322;2022-12-22T15:11:47;12.85;;;3.40;;
65405;SDS011;52016;51.228;-2.322;2022-12-22T15:15:33;14.50;;;3.28;;
65405;SDS011;52016;51.228;-2.322;2022-12-22T15:19:16;15.02;;;3.83;;
65405;SDS011;52016;51.228;-2.322;2022-12-22T15:23:02;19.55;;;3.95;;
65405;SDS011;52016;51.228;-2.322;2022-12-22T15:26:48;25.02;;;9.65;;
65405;SDS011;52016;51.228;-2.322;2022-12-22T15:30:30;13.70;;;3.97;;
65405;SDS011;52016;51.228;-2.322;2022-12-22T15:34:13;15.70;;;3.63;;
65405;SDS011;52016;51.228;-2.322;2022-12-22T15:38:05;19.38;;;4.32;;
65405;SDS011;52016;51.228;-2.322;2022-12-22T15:41:54;14.95;;;3.58;;
65405;SDS011;52016;51.228;-2.322;2022-12-22T15:45:37;17.85;;;3.30;;
65405;SDS011;52016;51.228;-2.322;2022-12-22T15:49:20;16.75;;;3.55;;
65405;SDS011;52016;51.228;-2.322;2022-12-22T15:53:04;21.80;;;4.75;;
65405;SDS011;52016;51.228;-2.322;2022-12-22T15:56:49;20.92;;;4.13;;
65405;SDS011;52016;51.228;-2.322;2022-12-22T16:00:32;13.40;;;3.50;;
65405;SDS011;52016;51.228;-2.322;2022-12-22T16:04:14;15.15;;;4.03;;
65405;SDS011;52016;51.228;-2.322;2022-12-22T16:07:56;18.55;;;4.78;;
65405;SDS011;52016;51.228;-2.322;2022-12-22T16:11:38;17.83;;;3.53;;
65405;SDS011;52016;51.228;-2.322;2022-12-22T16:15:21;17.00;;;4.75;;
65405;SDS011;52016;51.228;-2.322;2022-12-22T16:19:03;17.55;;;4.30;;
65405;SDS011;52016;51.228;-2.322;2022-12-22T16:22:45;13.40;;;3.53;;
65405;SDS011;52016;51.228;-2.322;2022-12-22T16:26:29;15.02;;;3.53;;
65405;SDS011;52016;51.228;-2.322;2022-12-22T16:30:32;10.05;;;3.40;;
65405;SDS011;52016;51.228;-2.322;2022-12-22T16:34:14;11.40;;;3.40;;
65405;SDS011;52016;51.228;-2.322;2022-12-22T16:37:57;14.15;;;3.67;;
65405;SDS011;52016;51.228;-2.322;2022-12-22T16:41:40;8.43;;;3.30;;
65405;SDS011;52016;51.228;-2.322;2022-12-22T16:45:26;10.90;;;3.50;;
65405;SDS011;52016;51.228;-2.322;2022-12-22T16:49:12;5.40;;;1.75;;
65405;SDS011;52016;51.228;-2.322;2022-12-22T16:53:08;4.57;;;2.80;;
65405;SDS011;52016;51.228;-2.322;2022-12-22T16:56:51;5.40;;;2.45;;
65405;SDS011;52016;51.228;-2.322;2022-12-22T17:00:33;3.45;;;2.10;;
65405;SDS011;52016;51.228;-2.322;2022-12-22T17:04:20;1.88;;;1.50;;
65405;SDS011;52016;51.228;-2.322;2022-12-22T17:08:06;2.65;;;1.98;;
65405;SDS011;52016;51.228;-2.322;2022-12-22T17:11:49;6.60;;;2.33;;
65405;SDS011;52016;51.228;-2.322;2022-12-22T17:15:33;4.45;;;2.05;;
65405;SDS011;52016;51.228;-2.322;2022-12-22T17:19:15;4.13;;;1.88;;
65405;SDS011;52016;51.228;-2.322;2022-12-22T17:22:58;3.53;;;2.03;;
65405;SDS011;52016;51.228;-2.322;2022-12-22T17:26:42;3.78;;;1.88;;
65405;SDS011;52016;51.228;-2.322;2022-12-22T17:30:25;7.32;;;3.58;;
65405;SDS011;52016;51.228;-2.322;2022-12-22T17:34:14;9.02;;;3.08;;
65405;SDS011;52016;51.228;-2.322;2022-12-22T17:37:58;5.03;;;2.88;;
65405;SDS011;52016;51.228;-2.322;2022-12-22T17:41:40;5.97;;;3.05;;
65405;SDS011;52016;51.228;-2.322;2022-12-22T17:45:23;8.20;;;4.63;;
65405;SDS011;52016;51.228;-2.322;2022-12-22T17:49:05;7.80;;;4.50;;
65405;SDS011;52016;51.228;-2.322;2022-12-22T17:52:47;9.60;;;4.88;;
65405;SDS011;52016;51.228;-2.322;2022-12-22T17:56:30;10.35;;;5.22;;
65405;SDS011;52016;51.228;-2.322;2022-12-22T18:00:16;8.88;;;4.57;;
65405;SDS011;52016;51.228;-2.322;2022-12-22T18:03:59;9.32;;;6.07;;
65405;SDS011;52016;51.228;-2.322;2022-12-22T18:07:41;8.85;;;6.45;;
65405;SDS011;52016;51.228;-2.322;2022-12-22T18:11:24;7.85;;;6.38;;
65405;SDS011;52016;51.228;-2.322;2022-12-22T18:15:14;9.98;;;3.45;;
65405;SDS011;52016;51.228;-2.322;2022-12-22T18:18:57;3.33;;;2.55;;
65405;SDS011;52016;51.228;-2.322;2022-12-22T18:22:39;4.63;;;3.13;;
65405;SDS011;52016;51.228;-2.322;2022-12-22T18:26:26;9.77;;;6.80;;
65405;SDS011;52016;51.228;-2.322;2022-12-22T18:33:58;8.35;;;4.28;;
65405;SDS011;52016;51.228;-2.322;2022-12-22T18:37:40;8.35;;;4.00;;
65405;SDS011;52016;51.228;-2.322;2022-12-22T18:41:23;4.25;;;2.50;;
65405;SDS011;52016;51.228;-2.322;2022-12-22T18:45:12;6.50;;;4.40;;
65405;SDS011;52016;51.228;-2.322;2022-12-22T18:52:45;3.70;;;2.45;;
65405;SDS011;52016;51.228;-2.322;2022-12-22T18:56:28;2.90;;;2.30;;
65405;SDS011;52016;51.228;-2.322;2022-12-22T19:00:11;1.90;;;1.60;;
65405;SDS011;52016;51.228;-2.322;2022-12-22T19:04:14;1.80;;;1.55;;
65405;SDS011;52016;51.228;-2.322;2022-12-22T19:07:56;3.72;;;1.80;;
65405;SDS011;52016;51.228;-2.322;2022-12-22T19:11:38;0.98;;;0.82;;
65405;SDS011;52016;51.228;-2.322;2022-12-22T19:19:20;2.15;;;1.30;;
65405;SDS011;52016;51.228;-2.322;2022-12-22T19:23:02;2.63;;;1.55;;
65405;SDS011;52016;51.228;-2.322;2022-12-22T19:26:44;3.13;;;1.90;;
65405;SDS011;52016;51.228;-2.322;2022-12-22T19:30:26;2.92;;;1.45;;
65405;SDS011;52016;51.228;-2.322;2022-12-22T19:34:12;2.10;;;1.25;;
65405;SDS011;52016;51.228;-2.322;2022-12-22T19:37:57;1.85;;;1.08;;
65405;SDS011;52016;51.228;-2.322;2022-12-22T19:41:44;4.35;;;2.40;;
65405;SDS011;52016;51.228;-2.322;2022-12-22T19:45:29;5.30;;;2.25;;
65405;SDS011;52016;51.228;-2.322;2022-12-22T19:49:18;6.05;;;1.65;;
65405;SDS011;52016;51.228;-2.322;2022-12-22T19:53:02;3.13;;;1.40;;
65405;SDS011;52016;51.228;-2.322;2022-12-22T19:56:45;4.10;;;2.00;;
65405;SDS011;52016;51.228;-2.322;2022-12-22T20:04:14;6.50;;;2.45;;
65405;SDS011;52016;51.228;-2.322;2022-12-22T20:07:57;4.75;;;1.88;;
65405;SDS011;52016;51.228;-2.322;2022-12-22T20:11:41;3.63;;;1.40;;
65405;SDS011;52016;51.228;-2.322;2022-12-22T20:15:25;3.63;;;1.48;;
65405;SDS011;52016;51.228;-2.322;2022-12-22T20:19:11;1.98;;;1.35;;
65405;SDS011;52016;51.228;-2.322;2022-12-22T20:22:57;2.92;;;1.70;;
65405;SDS011;52016;51.228;-2.322;2022-12-22T20:26:43;1.98;;;1.23;;
65405;SDS011;52016;51.228;-2.322;2022-12-22T20:30:34;3.92;;;1.58;;
65405;SDS011;52016;51.228;-2.322;2022-12-22T20:34:16;3.15;;;1.35;;
65405;SDS011;52016;51.228;-2.322;2022-12-22T20:37:58;3.92;;;1.50;;
65405;SDS011;52016;51.228;-2.322;2022-12-22T20:41:40;2.85;;;1.65;;
65405;SDS011;52016;51.228;-2.322;2022-12-22T20:45:30;4.82;;;1.80;;
65405;SDS011;52016;51.228;-2.322;2022-12-22T20:49:13;3.50;;;1.83;;
65405;SDS011;52016;51.228;-2.322;2022-12-22T20:52:56;4.70;;;1.90;;
65405;SDS011;52016;51.228;-2.322;2022-12-22T20:56:38;5.07;;;1.60;;
65405;SDS011;52016;51.228;-2.322;2022-12-22T21:00:22;2.33;;;1.45;;
65405;SDS011;52016;51.228;-2.322;2022-12-22T21:04:08;2.95;;;1.50;;
65405;SDS011;52016;51.228;-2.322;2022-12-22T21:07:50;4.57;;;1.90;;
65405;SDS011;52016;51.228;-2.322;2022-12-22T21:11:32;4.63;;;2.20;;
65405;SDS011;52016;51.228;-2.322;2022-12-22T21:15:17;2.50;;;1.88;;
65405;SDS011;52016;51.228;-2.322;2022-12-22T21:19:01;2.47;;;1.80;;
65405;SDS011;52016;51.228;-2.322;2022-12-22T21:22:43;4.93;;;2.28;;
65405;SDS011;52016;51.228;-2.322;2022-12-22T21:26:29;1.73;;;1.63;;
65405;SDS011;52016;51.228;-2.322;2022-12-22T21:33:58;5.22;;;2.45;;
65405;SDS011;52016;51.228;-2.322;2022-12-22T21:37:40;6.00;;;2.20;;
65405;SDS011;52016;51.228;-2.322;2022-12-22T21:41:23;1.60;;;1.50;;
65405;SDS011;52016;51.228;-2.322;2022-12-22T21:45:25;3.75;;;1.30;;
65405;SDS011;52016;51.228;-2.322;2022-12-22T21:49:16;2.35;;;1.15;;
65405;SDS011;52016;51.228;-2.322;2022-12-22T21:53:00;2.20;;;1.63;;
65405;SDS011;52016;51.228;-2.322;2022-12-22T21:56:42;3.03;;;1.58;;
65405;SDS011;52016;51.228;-2.322;2022-12-22T22:00:25;1.95;;;1.42;;
65405;SDS011;52016;51.228;-2.322;2022-12-22T22:04:08;4.30;;;1.70;;
65405;SDS011;52016;51.228;-2.322;2022-12-22T22:07:50;2.00;;;1.80;;
65405;SDS011;52016;51.228;-2.322;2022-12-22T22:11:33;4.72;;;1.40;;
65405;SDS011;52016;51.228;-2.322;2022-12-22T22:15:38;0.95;;;0.85;;
65405;SDS011;52016;51.228;-2.322;2022-12-22T22:19:20;5.10;;;1.60;;
65405;SDS011;52016;51.228;-2.322;2022-12-22T22:23:02;3.33;;;1.88;;
65405;SDS011;52016;51.228;-2.322;2022-12-22T22:26:44;3.80;;;1.30;;
65405;SDS011;52016;51.228;-2.322;2022-12-22T22:30:26;2.22;;;1.30;;
65405;SDS011;52016;51.228;-2.322;2022-12-22T22:34:08;2.00;;;1.20;;
65405;SDS011;52016;51.228;-2.322;2022-12-22T22:37:50;3.25;;;1.90;;
65405;SDS011;52016;51.228;-2.322;2022-12-22T22:41:32;2.20;;;1.17;;
65405;SDS011;52016;51.228;-2.322;2022-12-22T22:45:21;2.60;;;1.17;;
65405;SDS011;52016;51.228;-2.322;2022-12-22T22:49:05;2.03;;;1.25;;
65405;SDS011;52016;51.228;-2.322;2022-12-22T22:52:47;2.30;;;1.35;;
65405;SDS011;52016;51.228;-2.322;2022-12-22T22:56:29;1.23;;;1.10;;
65405;SDS011;52016;51.228;-2.322;2022-12-22T23:00:14;2.80;;;1.15;;
65405;SDS011;52016;51.228;-2.322;2022-12-22T23:03:57;2.28;;;1.45;;
65405;SDS011;52016;51.228;-2.322;2022-12-22T23:07:39;1.85;;;1.10;;
65405;SDS011;52016;51.228;-2.322;2022-12-22T23:11:21;2.05;;;1.50;;
65405;SDS011;52016;51.228;-2.322;2022-12-22T23:15:03;1.65;;;1.25;;
65405;SDS011;52016;51.228;-2.322;2022-12-22T23:18:46;2.58;;;1.23;;
65405;SDS011;52016;51.228;-2.322;2022-12-22T23:22:28;2.00;;;1.80;;
65405;SDS011;52016;51.228;-2.322;2022-12-22T23:26:10;3.08;;;2.58;;
65405;SDS011;52016;51.228;-2.322;2022-12-22T23:29:52;5.72;;;2.92;;
65405;SDS011;52016;51.228;-2.322;2022-12-22T23:33:35;4.60;;;2.30;;
65405;SDS011;52016;51.228;-2.322;2022-12-22T23:37:17;3.85;;;1.67;;
65405;SDS011;52016;51.228;-2.322;2022-12-22T23:41:04;3.45;;;1.20;;
65405;SDS011;52016;51.228;-2.322;2022-12-22T23:44:49;5.75;;;3.40;;
65405;SDS011;52016;51.228;-2.322;2022-12-22T23:48:31;3.83;;;2.60;;
65405;SDS011;52016;51.228;-2.322;2022-12-22T23:52:13;2.97;;;1.60;;
65405;SDS011;52016;51.228;-2.322;2022-12-22T23:55:54;3.35;;;1.70;;
65405;SDS011;52016;51.228;-2.322;2022-12-22T23:59:36;2.10;;;1.20;;
